createdAt,value
2022-12-18T00:01:19.393Z,30.42
2022-12-18T00:03:47.349Z,35.55
2022-12-18T00:06:15.588Z,47.00
2022-12-18T00:08:43.456Z,41.20
2022-12-18T00:11:16.611Z,41.80
2022-12-18T00:13:44.129Z,35.28
2022-12-18T00:16:15.785Z,38.10
2022-12-18T00:18:43.243Z,38.40
2022-12-18T00:21:12.232Z,34.20
2022-12-18T00:23:40.896Z,31.08
2022-12-18T00:26:11.785Z,40.78
2022-12-18T00:28:42.196Z,38.20
2022-12-18T00:31:11.510Z,36.65
2022-12-18T00:33:39.326Z,44.35
2022-12-18T00:36:15.229Z,38.63
2022-12-18T00:38:42.636Z,45.83
2022-12-18T00:41:11.335Z,39.10
2022-12-18T00:43:40.022Z,43.67
2022-12-18T00:46:07.489Z,38.92
2022-12-18T00:48:35.261Z,29.52
2022-12-18T00:51:02.330Z,39.35
2022-12-18T00:53:29.498Z,42.22
2022-12-18T00:55:56.927Z,39.67
2022-12-18T00:58:24.026Z,37.28
2022-12-18T01:00:51.161Z,41.95
2022-12-18T01:03:18.640Z,32.10
2022-12-18T01:05:45.778Z,30.77
2022-12-18T01:08:12.917Z,34.33
2022-12-18T01:10:42.922Z,40.72
2022-12-18T01:13:09.995Z,39.50
2022-12-18T01:15:37.199Z,37.22
2022-12-18T01:18:05.754Z,36.08
2022-12-18T01:20:33.427Z,29.40
2022-12-18T01:23:00.529Z,35.20
2022-12-18T01:25:27.866Z,41.85
2022-12-18T01:27:54.914Z,28.25
2022-12-18T01:30:21.976Z,26.00
2022-12-18T01:32:49.363Z,31.27
2022-12-18T01:35:17.703Z,37.80
2022-12-18T01:37:44.794Z,35.05
2022-12-18T01:40:12.288Z,47.00
2022-12-18T01:42:39.916Z,42.03
2022-12-18T01:45:12.976Z,41.10
2022-12-18T01:47:51.003Z,35.57
2022-12-18T01:50:22.817Z,38.83
2022-12-18T01:52:54.146Z,26.65
2022-12-18T01:55:25.090Z,41.92
2022-12-18T01:57:55.345Z,27.90
2022-12-18T02:00:24.008Z,30.77
2022-12-18T02:02:52.298Z,38.30
2022-12-18T02:05:27.067Z,41.35
2022-12-18T02:08:23.408Z,34.60
2022-12-18T02:11:20.657Z,30.70
2022-12-18T02:14:12.812Z,36.47
2022-12-18T02:17:02.820Z,46.47
2022-12-18T02:19:52.297Z,37.47
2022-12-18T02:22:45.572Z,28.80
2022-12-18T02:25:31.017Z,40.60
2022-12-18T02:28:00.931Z,38.88
2022-12-18T02:30:32.507Z,36.10
2022-12-18T02:33:02.263Z,30.98
2022-12-18T02:35:31.445Z,38.90
2022-12-18T02:37:59.261Z,29.70
2022-12-18T02:40:28.936Z,32.45
2022-12-18T02:42:56.344Z,30.02
2022-12-18T02:45:24.347Z,26.62
2022-12-18T02:47:52.739Z,34.55
2022-12-18T02:50:23.911Z,32.67
2022-12-18T02:53:05.375Z,33.35
2022-12-18T02:55:41.665Z,33.92
2022-12-18T02:58:29.953Z,31.48
2022-12-18T03:01:29.632Z,34.95
2022-12-18T03:04:02.476Z,26.73
2022-12-18T03:06:33.573Z,28.73
2022-12-18T03:09:03.898Z,31.98
2022-12-18T03:11:52.640Z,28.77
2022-12-18T03:14:21.759Z,31.55
2022-12-18T03:16:52.833Z,32.97
2022-12-18T03:19:23.854Z,35.95
2022-12-18T03:21:55.518Z,34.00
2022-12-18T03:24:24.956Z,35.05
2022-12-18T03:26:55.940Z,28.83
2022-12-18T03:29:30.052Z,32.33
2022-12-18T03:32:04.397Z,34.15
2022-12-18T03:34:35.045Z,32.37
2022-12-18T03:37:04.367Z,32.80
2022-12-18T03:39:32.803Z,34.85
2022-12-18T03:42:15.775Z,36.58
2022-12-18T03:45:16.829Z,28.15
2022-12-18T03:48:01.900Z,41.28
2022-12-18T03:50:49.092Z,30.75
2022-12-18T03:53:46.107Z,26.60
2022-12-18T03:56:15.000Z,25.42
2022-12-18T03:58:43.301Z,36.45
2022-12-18T04:01:13.559Z,30.73
2022-12-18T04:03:42.632Z,31.70
2022-12-18T04:06:11.071Z,36.10
2022-12-18T04:08:39.621Z,39.45
2022-12-18T04:11:07.326Z,29.42
2022-12-18T04:13:37.376Z,32.42
2022-12-18T04:16:06.340Z,29.27
2022-12-18T04:18:33.871Z,36.05
2022-12-18T04:21:01.185Z,32.35
2022-12-18T04:23:29.395Z,29.42
2022-12-18T04:25:57.415Z,31.98
2022-12-18T04:28:27.227Z,29.58
2022-12-18T04:30:54.390Z,36.40
2022-12-18T04:33:22.706Z,29.33
2022-12-18T04:35:50.028Z,30.75
2022-12-18T04:38:18.048Z,34.30
2022-12-18T04:40:46.597Z,35.78
2022-12-18T04:43:14.944Z,42.78
2022-12-18T04:45:42.121Z,37.30
2022-12-18T04:48:09.526Z,35.58
2022-12-18T04:50:37.435Z,27.67
2022-12-18T04:53:04.560Z,29.50
2022-12-18T04:55:31.936Z,28.17
2022-12-18T04:57:58.993Z,40.47
2022-12-18T05:00:27.311Z,33.40
2022-12-18T05:02:55.227Z,42.15
2022-12-18T05:05:22.388Z,29.40
2022-12-18T05:07:49.444Z,35.63
2022-12-18T05:10:16.782Z,33.13
2022-12-18T05:13:02.154Z,35.40
2022-12-18T05:15:30.818Z,32.55
2022-12-18T05:17:58.957Z,30.80
2022-12-18T05:20:26.874Z,30.02
2022-12-18T05:22:55.504Z,30.88
2022-12-18T05:25:23.405Z,29.12
2022-12-18T05:27:50.455Z,37.15
2022-12-18T05:30:18.036Z,40.72
2022-12-18T05:32:45.117Z,38.58
2022-12-18T05:35:12.385Z,37.80
2022-12-18T05:37:43.169Z,33.55
2022-12-18T05:40:11.339Z,30.52
2022-12-18T05:42:38.470Z,31.02
2022-12-18T05:45:06.790Z,34.58
2022-12-18T05:47:33.813Z,24.27
2022-12-18T05:50:00.886Z,29.83
2022-12-18T05:52:28.181Z,31.58
2022-12-18T05:54:55.277Z,32.88
2022-12-18T05:57:22.349Z,26.10
2022-12-18T05:59:49.708Z,33.92
2022-12-18T06:02:16.913Z,34.60
2022-12-18T06:04:44.318Z,33.42
2022-12-18T06:07:11.368Z,32.70
2022-12-18T06:09:38.505Z,37.90
2022-12-18T06:12:06.328Z,36.13
2022-12-18T06:14:33.409Z,24.58
2022-12-18T06:17:00.437Z,41.25
2022-12-18T06:19:27.733Z,34.28
2022-12-18T06:21:54.748Z,37.60
2022-12-18T06:24:21.798Z,35.85
2022-12-18T06:26:49.082Z,32.42
2022-12-18T06:29:16.077Z,37.35
2022-12-18T06:31:43.114Z,30.15
2022-12-18T06:34:10.454Z,68.45
2022-12-18T06:36:37.452Z,57.25
2022-12-18T06:39:04.980Z,35.65
2022-12-18T06:41:32.290Z,47.83
2022-12-18T06:44:00.063Z,51.40
2022-12-18T06:46:27.783Z,48.45
2022-12-18T06:48:55.033Z,37.33
2022-12-18T06:51:23.601Z,57.58
2022-12-18T06:53:50.778Z,40.33
2022-12-18T06:56:18.274Z,39.40
2022-12-18T06:58:45.345Z,34.63
2022-12-18T07:01:13.313Z,39.63
2022-12-18T07:03:42.164Z,43.30
2022-12-18T07:06:27.447Z,33.15
2022-12-18T07:08:55.264Z,45.03
2022-12-18T07:11:22.814Z,34.67
2022-12-18T07:13:49.889Z,30.20
2022-12-18T07:16:25.197Z,26.12
2022-12-18T07:18:53.267Z,32.60
2022-12-18T07:21:20.724Z,40.97
2022-12-18T07:23:49.198Z,41.47
2022-12-18T07:26:18.643Z,30.33
2022-12-18T07:28:46.089Z,39.30
2022-12-18T07:31:15.747Z,40.75
2022-12-18T07:33:43.331Z,29.42
2022-12-18T07:36:11.289Z,34.17
2022-12-18T07:38:38.653Z,34.38
2022-12-18T07:41:08.216Z,35.35
2022-12-18T07:43:36.169Z,36.85
2022-12-18T07:46:03.796Z,44.08
2022-12-18T07:48:31.516Z,35.00
2022-12-18T07:51:03.659Z,35.75
2022-12-18T07:53:31.526Z,33.97
2022-12-18T07:56:25.969Z,33.97
2022-12-18T07:58:48.568Z,30.33
2022-12-18T08:01:16.644Z,40.63
2022-12-18T08:03:44.581Z,40.75
2022-12-18T08:06:11.633Z,44.00
2022-12-18T08:08:38.759Z,36.08
2022-12-18T08:11:06.119Z,39.67
2022-12-18T08:13:33.186Z,43.58
2022-12-18T08:16:02.688Z,41.45
2022-12-18T08:18:30.561Z,40.08
2022-12-18T08:21:10.321Z,35.50
2022-12-18T08:23:42.568Z,40.22
2022-12-18T08:26:11.298Z,42.58
2022-12-18T08:28:38.904Z,37.00
2022-12-18T08:31:06.379Z,40.60
2022-12-18T08:33:33.907Z,37.20
2022-12-18T08:36:01.785Z,38.80
2022-12-18T08:38:29.136Z,36.38
2022-12-18T08:41:04.001Z,49.80
2022-12-18T08:43:50.122Z,44.35
2022-12-18T08:46:17.700Z,41.65
2022-12-18T08:48:45.159Z,49.42
2022-12-18T08:51:13.539Z,44.25
2022-12-18T08:53:41.022Z,43.22
2022-12-18T08:56:09.034Z,50.83
2022-12-18T08:58:36.091Z,36.53
2022-12-18T09:01:08.214Z,36.40
2022-12-18T09:03:36.051Z,36.63
2022-12-18T09:06:03.384Z,43.13
2022-12-18T09:08:30.835Z,47.67
2022-12-18T09:11:04.074Z,44.50
2022-12-18T09:13:31.313Z,35.45
2022-12-18T09:15:58.527Z,42.15
2022-12-18T09:18:26.125Z,36.80
2022-12-18T09:20:53.966Z,46.75
2022-12-18T09:23:21.823Z,40.35
2022-12-18T09:25:49.644Z,39.47
2022-12-18T09:28:18.655Z,39.38
2022-12-18T09:30:50.191Z,51.53
2022-12-18T09:33:18.523Z,43.17
2022-12-18T09:35:47.190Z,52.45
2022-12-18T09:38:17.443Z,39.20
2022-12-18T09:40:51.194Z,40.55
2022-12-18T09:43:20.963Z,43.22
2022-12-18T09:45:59.477Z,37.10
2022-12-18T09:48:32.337Z,42.20
2022-12-18T09:51:03.797Z,42.95
2022-12-18T09:53:34.351Z,45.40
2022-12-18T09:56:02.885Z,37.38
2022-12-18T09:58:34.253Z,36.45
2022-12-18T10:01:01.519Z,39.63
2022-12-18T10:03:29.023Z,36.92
2022-12-18T10:06:14.737Z,51.63
2022-12-18T10:08:49.567Z,46.25
2022-12-18T10:11:28.691Z,42.60
2022-12-18T10:14:12.205Z,42.67
2022-12-18T10:16:48.531Z,40.55
2022-12-18T10:19:34.515Z,48.87
2022-12-18T10:22:23.197Z,43.60
2022-12-18T10:24:52.316Z,44.00
2022-12-18T10:27:23.602Z,42.40
2022-12-18T10:29:50.810Z,38.28
2022-12-18T10:32:24.335Z,42.03
2022-12-18T10:35:00.047Z,39.33
2022-12-18T10:37:30.359Z,42.28
2022-12-18T10:40:10.801Z,45.22
2022-12-18T10:42:38.495Z,39.88
2022-12-18T10:45:16.334Z,27.92
2022-12-18T10:47:49.676Z,31.12
2022-12-18T10:51:01.290Z,36.13
2022-12-18T10:53:21.556Z,36.22
2022-12-18T10:55:49.143Z,34.70
2022-12-18T10:58:26.751Z,46.65
2022-12-18T11:01:16.700Z,41.20
2022-12-18T11:04:02.468Z,33.03
2022-12-18T11:06:30.460Z,40.35
2022-12-18T11:09:23.082Z,34.78
2022-12-18T11:11:54.991Z,31.37
2022-12-18T11:14:25.173Z,33.55
2022-12-18T11:19:42.029Z,36.88
2022-12-18T11:22:28.847Z,32.90
2022-12-18T11:25:30.216Z,30.55
2022-12-18T11:27:50.810Z,29.52
2022-12-18T11:30:21.109Z,26.87
2022-12-18T11:32:50.215Z,28.25
2022-12-18T11:35:29.615Z,32.60
2022-12-18T11:38:27.555Z,29.40
2022-12-18T11:42:00.466Z,33.22
2022-12-18T11:44:44.055Z,32.28
2022-12-18T11:47:37.135Z,34.22
2022-12-18T11:50:16.166Z,30.27
2022-12-18T11:52:43.976Z,27.95
2022-12-18T11:55:26.657Z,34.08
2022-12-18T11:58:06.002Z,30.27
2022-12-18T12:00:36.761Z,28.42
2022-12-18T12:03:16.224Z,32.63
2022-12-18T12:06:07.275Z,27.92
2022-12-18T12:08:52.988Z,31.23
2022-12-18T12:11:52.499Z,30.37
2022-12-18T12:14:33.671Z,27.15
2022-12-18T12:17:26.961Z,28.17
2022-12-18T12:20:23.577Z,33.83
2022-12-18T12:23:02.061Z,27.20
2022-12-18T12:25:40.671Z,28.60
2022-12-18T12:28:39.088Z,26.00
2022-12-18T12:31:09.003Z,26.83
2022-12-18T12:33:51.036Z,28.67
2022-12-18T12:36:27.340Z,30.62
2022-12-18T12:38:57.358Z,31.95
2022-12-18T12:41:45.726Z,30.62
2022-12-18T12:44:19.572Z,32.45
2022-12-18T12:46:47.807Z,27.08
2022-12-18T12:49:18.689Z,29.87
2022-12-18T12:52:14.367Z,32.50
2022-12-18T12:54:42.174Z,32.05
2022-12-18T12:57:19.234Z,36.70
2022-12-18T13:00:03.744Z,28.65
2022-12-18T13:02:40.187Z,28.62
2022-12-18T13:05:17.915Z,30.50
2022-12-18T13:07:51.459Z,30.17
2022-12-18T13:10:22.231Z,26.33
2022-12-18T13:12:58.816Z,31.80
2022-12-18T13:15:40.673Z,32.03
2022-12-18T13:18:10.439Z,33.30
2022-12-18T13:20:40.735Z,33.55
2022-12-18T13:23:20.983Z,29.58
2022-12-18T13:25:51.221Z,35.90
2022-12-18T13:28:22.938Z,31.67
2022-12-18T13:30:55.383Z,33.63
2022-12-18T13:33:27.933Z,35.28
2022-12-18T13:36:28.619Z,32.17
2022-12-18T13:39:17.303Z,28.27
2022-12-18T13:41:50.467Z,31.48
2022-12-18T13:44:41.135Z,32.60
2022-12-18T13:47:33.799Z,28.35
2022-12-18T13:50:12.880Z,32.33
2022-12-18T13:52:41.260Z,25.45
2022-12-18T13:55:17.588Z,28.42
2022-12-18T13:57:45.221Z,33.00
2022-12-18T14:00:29.790Z,32.90
2022-12-18T14:02:58.526Z,28.92
2022-12-18T14:05:31.047Z,33.95
2022-12-18T14:08:03.777Z,29.05
2022-12-18T14:10:47.794Z,27.52
2022-12-18T14:13:24.747Z,38.85
2022-12-18T14:15:52.035Z,32.15
2022-12-18T14:18:25.232Z,41.42
2022-12-18T14:20:54.596Z,29.73
2022-12-18T14:23:33.556Z,31.02
2022-12-18T14:26:05.725Z,27.98
2022-12-18T14:28:45.007Z,27.45
2022-12-18T14:31:23.273Z,30.95
2022-12-18T14:33:51.299Z,25.58
2022-12-18T14:36:29.691Z,30.27
2022-12-18T14:38:58.496Z,32.58
2022-12-18T14:41:26.517Z,27.23
2022-12-18T14:43:55.130Z,27.95
2022-12-18T14:46:46.793Z,37.47
2022-12-18T14:49:34.905Z,34.25
2022-12-18T14:52:04.818Z,33.08
2022-12-18T14:54:32.552Z,37.67
2022-12-18T14:57:07.730Z,32.03
2022-12-18T14:59:35.030Z,39.42
2022-12-18T15:02:26.804Z,29.52
2022-12-18T15:05:22.057Z,33.45
2022-12-18T15:07:51.893Z,30.00
2022-12-18T15:10:34.116Z,31.70
2022-12-18T15:13:01.577Z,28.65
2022-12-18T15:15:37.991Z,31.67
2022-12-18T15:18:07.566Z,36.40
2022-12-18T15:20:52.136Z,43.40
2022-12-18T15:23:27.700Z,59.17
2022-12-18T15:26:00.433Z,47.05
2022-12-18T15:28:39.099Z,50.25
2022-12-18T15:31:26.376Z,39.10
2022-12-18T15:33:53.870Z,38.15
2022-12-18T15:36:26.174Z,81.95
2022-12-18T15:39:02.903Z,73.35
2022-12-18T15:41:35.211Z,112.85
2022-12-18T15:44:04.503Z,151.52
2022-12-18T15:46:32.114Z,73.18
2022-12-18T15:49:02.558Z,73.75
2022-12-18T15:51:41.440Z,65.30
2022-12-18T15:54:13.962Z,50.92
2022-12-18T15:56:59.597Z,64.12
2022-12-18T15:59:27.007Z,65.53
2022-12-18T16:01:54.370Z,55.85
2022-12-18T16:04:23.097Z,65.10
2022-12-18T16:09:40.987Z,63.08
2022-12-18T16:12:22.144Z,72.10
2022-12-18T16:14:49.680Z,61.70
2022-12-18T16:17:16.916Z,55.35
2022-12-18T16:19:44.288Z,55.63
2022-12-18T16:22:19.941Z,73.22
2022-12-18T16:24:46.994Z,66.70
2022-12-18T16:27:14.352Z,40.38
2022-12-18T16:29:41.448Z,48.42
2022-12-18T16:32:14.079Z,55.03
2022-12-18T16:34:42.951Z,78.62
2022-12-18T16:37:11.871Z,58.90
2022-12-18T16:39:40.127Z,54.83
2022-12-18T16:42:13.653Z,48.05
2022-12-18T16:44:41.306Z,43.75
2022-12-18T16:47:09.546Z,40.00
2022-12-18T16:49:38.585Z,40.35
2022-12-18T16:52:06.581Z,47.03
2022-12-18T16:54:35.135Z,41.53
2022-12-18T16:57:02.733Z,37.08
2022-12-18T16:59:29.912Z,37.97
2022-12-18T17:01:57.724Z,36.17
2022-12-18T17:04:25.104Z,42.95
2022-12-18T17:06:53.859Z,48.08
2022-12-18T17:09:31.040Z,49.58
2022-12-18T17:11:58.167Z,50.50
2022-12-18T17:14:25.841Z,56.72
2022-12-18T17:17:20.288Z,67.72
2022-12-18T17:19:44.408Z,47.47
2022-12-18T17:22:11.489Z,67.55
2022-12-18T17:24:38.622Z,62.45
2022-12-18T17:27:06.029Z,60.60
2022-12-18T17:29:33.231Z,58.03
2022-12-18T17:32:00.410Z,84.32
2022-12-18T17:34:30.132Z,72.25
2022-12-18T17:36:58.056Z,56.88
2022-12-18T17:39:25.804Z,61.08
2022-12-18T17:41:53.083Z,60.35
2022-12-18T17:44:20.410Z,57.13
2022-12-18T17:46:47.538Z,56.70
2022-12-18T17:49:15.008Z,57.97
2022-12-18T17:51:43.092Z,63.92
2022-12-18T17:54:11.058Z,63.72
2022-12-18T17:56:38.818Z,81.80
2022-12-18T17:59:07.180Z,123.60
2022-12-18T18:01:38.479Z,127.50
2022-12-18T18:04:08.501Z,105.87
2022-12-18T18:06:38.101Z,88.87
2022-12-18T18:09:12.948Z,93.82
2022-12-18T18:12:06.691Z,113.37
2022-12-18T18:14:33.724Z,129.73
2022-12-18T18:17:04.795Z,70.18
2022-12-18T18:19:35.751Z,76.57
2022-12-18T18:22:03.709Z,81.63
2022-12-18T18:24:31.272Z,64.93
2022-12-18T18:27:00.020Z,75.47
2022-12-18T18:29:30.297Z,67.12
2022-12-18T18:31:57.934Z,75.07
2022-12-18T18:34:27.921Z,80.90
2022-12-18T18:36:55.570Z,71.65
2022-12-18T18:39:25.391Z,74.80
2022-12-18T18:41:52.814Z,75.65
2022-12-18T18:44:24.812Z,84.47
2022-12-18T18:46:57.312Z,84.20
2022-12-18T18:49:27.459Z,77.22
2022-12-18T18:51:56.291Z,81.45
2022-12-18T18:54:25.382Z,87.50
2022-12-18T18:59:39.856Z,103.12
2022-12-18T19:02:14.302Z,108.93
2022-12-18T19:04:46.260Z,94.62
2022-12-18T19:07:19.752Z,90.90
2022-12-18T19:09:57.132Z,96.55
2022-12-18T19:12:45.052Z,98.93
2022-12-18T19:15:12.055Z,77.90
2022-12-18T19:17:41.068Z,90.28
2022-12-18T19:20:10.172Z,87.00
2022-12-18T19:22:39.472Z,74.53
2022-12-18T19:25:07.686Z,73.00
2022-12-18T19:27:38.531Z,62.08
2022-12-18T19:30:06.102Z,71.82
2022-12-18T19:32:36.451Z,58.97
2022-12-18T19:35:04.003Z,62.42
2022-12-18T19:37:31.205Z,59.30
2022-12-18T19:39:58.634Z,57.65
2022-12-18T19:42:34.848Z,47.42
2022-12-18T19:45:07.204Z,55.42
2022-12-18T19:47:34.203Z,63.33
2022-12-18T19:50:01.274Z,65.12
2022-12-18T19:52:28.621Z,65.62
2022-12-18T19:54:55.702Z,57.78
2022-12-18T19:57:22.810Z,60.03
2022-12-18T19:59:50.142Z,66.10
2022-12-18T20:02:18.933Z,64.80
2022-12-18T20:04:46.737Z,68.85
2022-12-18T20:07:13.804Z,75.10
2022-12-18T20:09:40.903Z,66.97
2022-12-18T20:12:08.347Z,63.60
2022-12-18T20:14:36.647Z,62.67
2022-12-18T20:17:03.758Z,69.12
2022-12-18T20:19:32.319Z,76.97
2022-12-18T20:22:01.162Z,66.00
2022-12-18T20:24:28.268Z,82.32
2022-12-18T20:26:56.435Z,61.33
2022-12-18T20:29:23.438Z,61.30
2022-12-18T20:31:50.691Z,53.97
2022-12-18T20:34:18.446Z,46.17
2022-12-18T20:36:46.394Z,61.60
2022-12-18T20:39:13.595Z,70.30
2022-12-18T20:41:41.751Z,63.00
2022-12-18T20:44:22.878Z,54.97
2022-12-18T20:46:53.908Z,56.00
2022-12-18T20:49:21.227Z,58.90
2022-12-18T20:51:52.906Z,54.20
2022-12-18T20:54:24.710Z,57.20
2022-12-18T20:56:52.279Z,65.40
2022-12-18T20:59:19.778Z,72.18
2022-12-18T21:01:48.982Z,55.97
2022-12-18T21:04:18.991Z,52.75
2022-12-18T21:06:52.997Z,54.17
2022-12-18T21:09:23.409Z,61.03
2022-12-18T21:12:29.236Z,56.47
2022-12-18T21:14:59.725Z,57.95
2022-12-18T21:17:27.262Z,62.92
2022-12-18T21:19:55.753Z,65.50
2022-12-18T21:22:23.155Z,55.75
2022-12-18T21:24:50.310Z,63.35
2022-12-18T21:27:18.116Z,69.75
2022-12-18T21:29:47.047Z,63.55
2022-12-18T21:32:14.407Z,65.87
2022-12-18T21:34:47.505Z,65.78
2022-12-18T21:37:15.831Z,71.20
2022-12-18T21:39:42.873Z,69.20
2022-12-18T21:42:30.683Z,63.80
2022-12-18T21:44:58.006Z,54.95
2022-12-18T21:47:25.091Z,63.63
2022-12-18T21:49:52.849Z,56.40
2022-12-18T21:52:23.878Z,57.50
2022-12-18T21:55:06.154Z,56.72
2022-12-18T21:57:36.034Z,62.67
2022-12-18T22:00:04.216Z,62.10
2022-12-18T22:02:39.631Z,62.53
2022-12-18T22:05:07.557Z,61.65
2022-12-18T22:07:34.780Z,56.80
2022-12-18T22:10:02.286Z,61.25
2022-12-18T22:12:44.420Z,64.00
2022-12-18T22:15:21.143Z,59.50
2022-12-18T22:17:50.787Z,61.47
2022-12-18T22:20:19.990Z,66.90
2022-12-18T22:22:48.469Z,68.95
2022-12-18T22:25:16.002Z,63.87
2022-12-18T22:27:43.416Z,71.93
2022-12-18T22:30:11.379Z,66.22
2022-12-18T22:32:38.715Z,70.45
2022-12-18T22:35:10.603Z,73.80
2022-12-18T22:37:40.273Z,60.22
2022-12-18T22:40:08.637Z,61.80
2022-12-18T22:42:35.819Z,67.47
2022-12-18T22:45:03.312Z,70.22
2022-12-18T22:47:30.840Z,62.47
2022-12-18T22:49:58.284Z,66.12
2022-12-18T22:52:25.899Z,69.68
2022-12-18T22:54:56.402Z,75.97
2022-12-18T22:57:23.853Z,81.05
2022-12-18T22:59:51.811Z,67.40
2022-12-18T23:02:19.327Z,76.15
2022-12-18T23:04:47.564Z,74.43
2022-12-18T23:07:15.699Z,68.87
2022-12-18T23:09:42.955Z,67.25
2022-12-18T23:12:15.444Z,71.18
2022-12-18T23:14:47.196Z,73.78
2022-12-18T23:17:14.334Z,67.32
2022-12-18T23:19:47.176Z,64.85
2022-12-18T23:22:17.068Z,56.13
2022-12-18T23:24:44.194Z,82.35
2022-12-18T23:27:11.936Z,72.93
2022-12-18T23:29:40.540Z,63.60
2022-12-18T23:32:07.833Z,73.18
2022-12-18T23:34:34.807Z,63.05
2022-12-18T23:37:03.642Z,66.97
2022-12-18T23:39:31.049Z,72.20
2022-12-18T23:41:58.760Z,66.25
2022-12-18T23:44:26.296Z,79.45
2022-12-18T23:46:53.577Z,75.40
2022-12-18T23:49:20.703Z,69.12
2022-12-18T23:51:48.084Z,74.75
2022-12-18T23:54:15.176Z,69.90
2022-12-18T23:56:42.324Z,71.00
2022-12-18T23:59:09.848Z,67.95
